sensor_id;sensor_type;location;lat;lon;timestamp;P1;durP1;ratioP1;P2;durP2;ratioP2
16270;SDS011;8243;49.048;8.396;2023-04-24T00:01:21;3.13;;;1.20;;
16270;SDS011;8243;49.048;8.396;2023-04-24T00:03:46;1.33;;;1.10;;
16270;SDS011;8243;49.048;8.396;2023-04-24T00:06:12;1.60;;;1.20;;
16270;SDS011;8243;49.048;8.396;2023-04-24T00:08:37;1.30;;;1.20;;
16270;SDS011;8243;49.048;8.396;2023-04-24T00:11:03;1.27;;;1.17;;
16270;SDS011;8243;49.048;8.396;2023-04-24T00:13:29;4.20;;;1.33;;
16270;SDS011;8243;49.048;8.396;2023-04-24T00:15:55;1.40;;;1.10;;
16270;SDS011;8243;49.048;8.396;2023-04-24T00:18:21;1.80;;;1.00;;
16270;SDS011;8243;49.048;8.396;2023-04-24T00:20:47;1.13;;;0.90;;
16270;SDS011;8243;49.048;8.396;2023-04-24T00:23:12;2.23;;;1.20;;
16270;SDS011;8243;49.048;8.396;2023-04-24T00:25:38;1.30;;;1.20;;
16270;SDS011;8243;49.048;8.396;2023-04-24T00:28:05;1.27;;;1.00;;
16270;SDS011;8243;49.048;8.396;2023-04-24T00:30:30;1.10;;;1.00;;
16270;SDS011;8243;49.048;8.396;2023-04-24T00:32:56;1.10;;;1.00;;
16270;SDS011;8243;49.048;8.396;2023-04-24T00:35:22;1.50;;;1.17;;
16270;SDS011;8243;49.048;8.396;2023-04-24T00:37:48;1.27;;;1.17;;
16270;SDS011;8243;49.048;8.396;2023-04-24T00:40:13;1.87;;;1.10;;
16270;SDS011;8243;49.048;8.396;2023-04-24T00:42:39;2.40;;;1.30;;
16270;SDS011;8243;49.048;8.396;2023-04-24T00:45:05;1.70;;;1.00;;
16270;SDS011;8243;49.048;8.396;2023-04-24T00:47:32;1.73;;;1.13;;
16270;SDS011;8243;49.048;8.396;2023-04-24T00:49:58;1.37;;;1.00;;
16270;SDS011;8243;49.048;8.396;2023-04-24T00:52:25;2.30;;;1.10;;
16270;SDS011;8243;49.048;8.396;2023-04-24T00:54:51;1.23;;;1.00;;
16270;SDS011;8243;49.048;8.396;2023-04-24T00:57:17;1.30;;;1.20;;
16270;SDS011;8243;49.048;8.396;2023-04-24T00:59:42;2.73;;;1.20;;
16270;SDS011;8243;49.048;8.396;2023-04-24T01:02:09;1.53;;;1.40;;
16270;SDS011;8243;49.048;8.396;2023-04-24T01:04:36;1.50;;;1.00;;
16270;SDS011;8243;49.048;8.396;2023-04-24T01:07:02;1.77;;;1.00;;
16270;SDS011;8243;49.048;8.396;2023-04-24T01:09:29;2.00;;;1.13;;
16270;SDS011;8243;49.048;8.396;2023-04-24T01:11:55;1.93;;;1.00;;
16270;SDS011;8243;49.048;8.396;2023-04-24T01:14:21;3.20;;;1.30;;
16270;SDS011;8243;49.048;8.396;2023-04-24T01:16:47;1.40;;;1.00;;
16270;SDS011;8243;49.048;8.396;2023-04-24T01:19:13;1.43;;;1.00;;
16270;SDS011;8243;49.048;8.396;2023-04-24T01:21:41;2.90;;;1.10;;
16270;SDS011;8243;49.048;8.396;2023-04-24T01:24:08;2.23;;;1.13;;
16270;SDS011;8243;49.048;8.396;2023-04-24T01:26:33;3.13;;;1.43;;
16270;SDS011;8243;49.048;8.396;2023-04-24T01:28:59;2.33;;;1.13;;
16270;SDS011;8243;49.048;8.396;2023-04-24T01:31:25;3.53;;;1.30;;
16270;SDS011;8243;49.048;8.396;2023-04-24T01:33:51;1.97;;;1.33;;
16270;SDS011;8243;49.048;8.396;2023-04-24T01:36:17;1.20;;;1.10;;
16270;SDS011;8243;49.048;8.396;2023-04-24T01:38:43;1.77;;;1.20;;
16270;SDS011;8243;49.048;8.396;2023-04-24T01:41:09;1.13;;;1.00;;
16270;SDS011;8243;49.048;8.396;2023-04-24T01:43:35;2.70;;;1.10;;
16270;SDS011;8243;49.048;8.396;2023-04-24T01:46:01;1.83;;;1.10;;
16270;SDS011;8243;49.048;8.396;2023-04-24T01:48:26;1.37;;;1.10;;
16270;SDS011;8243;49.048;8.396;2023-04-24T01:50:52;1.97;;;1.33;;
16270;SDS011;8243;49.048;8.396;2023-04-24T01:53:18;1.27;;;1.17;;
16270;SDS011;8243;49.048;8.396;2023-04-24T01:55:43;2.00;;;1.20;;
16270;SDS011;8243;49.048;8.396;2023-04-24T01:58:09;1.97;;;1.10;;
16270;SDS011;8243;49.048;8.396;2023-04-24T02:00:34;2.07;;;1.10;;
16270;SDS011;8243;49.048;8.396;2023-04-24T02:03:00;1.17;;;1.07;;
16270;SDS011;8243;49.048;8.396;2023-04-24T02:05:26;1.30;;;1.10;;
16270;SDS011;8243;49.048;8.396;2023-04-24T02:07:52;1.40;;;0.90;;
16270;SDS011;8243;49.048;8.396;2023-04-24T02:10:18;2.03;;;1.27;;
16270;SDS011;8243;49.048;8.396;2023-04-24T02:12:43;1.17;;;1.17;;
16270;SDS011;8243;49.048;8.396;2023-04-24T02:15:09;2.60;;;1.30;;
16270;SDS011;8243;49.048;8.396;2023-04-24T02:17:35;1.60;;;1.10;;
16270;SDS011;8243;49.048;8.396;2023-04-24T02:20:01;1.63;;;1.23;;
16270;SDS011;8243;49.048;8.396;2023-04-24T02:22:27;1.73;;;1.27;;
16270;SDS011;8243;49.048;8.396;2023-04-24T02:24:52;1.90;;;1.30;;
16270;SDS011;8243;49.048;8.396;2023-04-24T02:27:18;1.63;;;1.10;;
16270;SDS011;8243;49.048;8.396;2023-04-24T02:29:43;1.23;;;1.13;;
16270;SDS011;8243;49.048;8.396;2023-04-24T02:32:09;1.43;;;1.30;;
16270;SDS011;8243;49.048;8.396;2023-04-24T02:34:36;1.00;;;0.90;;
16270;SDS011;8243;49.048;8.396;2023-04-24T02:37:02;1.43;;;1.10;;
16270;SDS011;8243;49.048;8.396;2023-04-24T02:39:28;1.40;;;1.23;;
16270;SDS011;8243;49.048;8.396;2023-04-24T02:41:53;2.07;;;1.17;;
16270;SDS011;8243;49.048;8.396;2023-04-24T02:44:19;2.10;;;1.00;;
16270;SDS011;8243;49.048;8.396;2023-04-24T02:46:44;3.43;;;1.27;;
16270;SDS011;8243;49.048;8.396;2023-04-24T02:49:10;1.93;;;1.20;;
16270;SDS011;8243;49.048;8.396;2023-04-24T02:51:36;2.10;;;1.40;;
16270;SDS011;8243;49.048;8.396;2023-04-24T02:54:05;1.30;;;1.20;;
16270;SDS011;8243;49.048;8.396;2023-04-24T02:56:31;1.60;;;1.20;;
16270;SDS011;8243;49.048;8.396;2023-04-24T02:58:56;1.67;;;1.10;;
16270;SDS011;8243;49.048;8.396;2023-04-24T03:01:22;1.80;;;0.90;;
16270;SDS011;8243;49.048;8.396;2023-04-24T03:03:47;1.53;;;1.20;;
16270;SDS011;8243;49.048;8.396;2023-04-24T03:06:14;3.33;;;1.30;;
16270;SDS011;8243;49.048;8.396;2023-04-24T03:08:40;1.33;;;1.20;;
16270;SDS011;8243;49.048;8.396;2023-04-24T03:11:05;1.77;;;1.30;;
16270;SDS011;8243;49.048;8.396;2023-04-24T03:13:31;2.20;;;1.43;;
16270;SDS011;8243;49.048;8.396;2023-04-24T03:15:56;1.50;;;1.40;;
16270;SDS011;8243;49.048;8.396;2023-04-24T03:18:22;4.27;;;1.57;;
16270;SDS011;8243;49.048;8.396;2023-04-24T03:20:47;1.97;;;1.60;;
16270;SDS011;8243;49.048;8.396;2023-04-24T03:23:13;1.97;;;1.50;;
16270;SDS011;8243;49.048;8.396;2023-04-24T03:25:39;2.00;;;1.50;;
16270;SDS011;8243;49.048;8.396;2023-04-24T03:28:05;3.63;;;2.20;;
16270;SDS011;8243;49.048;8.396;2023-04-24T03:30:31;3.00;;;2.00;;
16270;SDS011;8243;49.048;8.396;2023-04-24T03:32:56;2.37;;;1.70;;
16270;SDS011;8243;49.048;8.396;2023-04-24T03:35:22;2.60;;;1.87;;
16270;SDS011;8243;49.048;8.396;2023-04-24T03:37:47;3.27;;;1.97;;
16270;SDS011;8243;49.048;8.396;2023-04-24T03:40:13;2.07;;;1.80;;
16270;SDS011;8243;49.048;8.396;2023-04-24T03:42:38;4.40;;;2.13;;
16270;SDS011;8243;49.048;8.396;2023-04-24T03:45:04;1.80;;;1.70;;
16270;SDS011;8243;49.048;8.396;2023-04-24T03:47:30;2.83;;;2.20;;
16270;SDS011;8243;49.048;8.396;2023-04-24T03:49:56;2.70;;;2.00;;
16270;SDS011;8243;49.048;8.396;2023-04-24T03:52:22;2.13;;;1.93;;
16270;SDS011;8243;49.048;8.396;2023-04-24T03:54:47;1.80;;;1.70;;
16270;SDS011;8243;49.048;8.396;2023-04-24T03:57:13;2.10;;;1.80;;
16270;SDS011;8243;49.048;8.396;2023-04-24T03:59:38;3.43;;;1.77;;
16270;SDS011;8243;49.048;8.396;2023-04-24T04:02:04;4.33;;;1.60;;
16270;SDS011;8243;49.048;8.396;2023-04-24T04:04:29;2.00;;;1.50;;
16270;SDS011;8243;49.048;8.396;2023-04-24T04:06:55;1.80;;;1.60;;
16270;SDS011;8243;49.048;8.396;2023-04-24T04:09:21;1.97;;;1.77;;
16270;SDS011;8243;49.048;8.396;2023-04-24T04:11:46;1.87;;;1.70;;
16270;SDS011;8243;49.048;8.396;2023-04-24T04:14:12;2.77;;;1.80;;
16270;SDS011;8243;49.048;8.396;2023-04-24T04:16:37;2.13;;;1.70;;
16270;SDS011;8243;49.048;8.396;2023-04-24T04:19:03;2.47;;;2.10;;
16270;SDS011;8243;49.048;8.396;2023-04-24T04:21:29;1.80;;;1.70;;
16270;SDS011;8243;49.048;8.396;2023-04-24T04:23:56;2.30;;;2.00;;
16270;SDS011;8243;49.048;8.396;2023-04-24T04:26:21;3.27;;;1.90;;
16270;SDS011;8243;49.048;8.396;2023-04-24T04:28:50;2.17;;;1.90;;
16270;SDS011;8243;49.048;8.396;2023-04-24T04:31:16;2.17;;;1.90;;
16270;SDS011;8243;49.048;8.396;2023-04-24T04:33:42;2.50;;;2.30;;
16270;SDS011;8243;49.048;8.396;2023-04-24T04:36:07;2.63;;;2.03;;
16270;SDS011;8243;49.048;8.396;2023-04-24T04:38:33;2.30;;;2.10;;
16270;SDS011;8243;49.048;8.396;2023-04-24T04:40:59;2.27;;;2.07;;
16270;SDS011;8243;49.048;8.396;2023-04-24T04:43:25;3.53;;;2.33;;
16270;SDS011;8243;49.048;8.396;2023-04-24T04:45:51;2.77;;;2.50;;
16270;SDS011;8243;49.048;8.396;2023-04-24T04:48:17;2.70;;;2.50;;
16270;SDS011;8243;49.048;8.396;2023-04-24T04:50:43;2.70;;;2.50;;
16270;SDS011;8243;49.048;8.396;2023-04-24T04:53:09;2.97;;;2.67;;
16270;SDS011;8243;49.048;8.396;2023-04-24T04:55:35;2.60;;;2.40;;
16270;SDS011;8243;49.048;8.396;2023-04-24T04:58:01;2.70;;;2.50;;
16270;SDS011;8243;49.048;8.396;2023-04-24T05:00:27;3.23;;;2.30;;
16270;SDS011;8243;49.048;8.396;2023-04-24T05:02:53;2.47;;;2.27;;
16270;SDS011;8243;49.048;8.396;2023-04-24T05:05:19;2.27;;;2.07;;
16270;SDS011;8243;49.048;8.396;2023-04-24T05:07:45;2.43;;;2.23;;
16270;SDS011;8243;49.048;8.396;2023-04-24T05:10:10;2.47;;;2.27;;
16270;SDS011;8243;49.048;8.396;2023-04-24T05:12:36;2.40;;;2.20;;
16270;SDS011;8243;49.048;8.396;2023-04-24T05:15:02;2.10;;;1.90;;
16270;SDS011;8243;49.048;8.396;2023-04-24T05:17:28;2.20;;;2.10;;
16270;SDS011;8243;49.048;8.396;2023-04-24T05:19:54;2.20;;;2.00;;
16270;SDS011;8243;49.048;8.396;2023-04-24T05:22:20;2.23;;;2.03;;
16270;SDS011;8243;49.048;8.396;2023-04-24T05:24:46;2.40;;;2.20;;
16270;SDS011;8243;49.048;8.396;2023-04-24T05:27:12;2.57;;;2.10;;
16270;SDS011;8243;49.048;8.396;2023-04-24T05:29:38;2.30;;;2.10;;
16270;SDS011;8243;49.048;8.396;2023-04-24T05:32:04;2.93;;;2.00;;
16270;SDS011;8243;49.048;8.396;2023-04-24T05:34:29;2.77;;;2.07;;
16270;SDS011;8243;49.048;8.396;2023-04-24T05:36:55;2.23;;;2.07;;
16270;SDS011;8243;49.048;8.396;2023-04-24T05:39:20;2.20;;;2.00;;
16270;SDS011;8243;49.048;8.396;2023-04-24T05:41:46;1.90;;;1.80;;
16270;SDS011;8243;49.048;8.396;2023-04-24T05:44:12;3.07;;;2.03;;
16270;SDS011;8243;49.048;8.396;2023-04-24T05:46:37;2.27;;;2.17;;
16270;SDS011;8243;49.048;8.396;2023-04-24T05:49:03;2.10;;;1.80;;
16270;SDS011;8243;49.048;8.396;2023-04-24T05:51:28;1.97;;;1.77;;
16270;SDS011;8243;49.048;8.396;2023-04-24T05:53:54;2.10;;;1.70;;
16270;SDS011;8243;49.048;8.396;2023-04-24T05:56:19;3.00;;;1.70;;
16270;SDS011;8243;49.048;8.396;2023-04-24T05:58:45;1.63;;;1.53;;
16270;SDS011;8243;49.048;8.396;2023-04-24T06:01:11;1.90;;;1.70;;
16270;SDS011;8243;49.048;8.396;2023-04-24T06:03:38;2.60;;;1.80;;
16270;SDS011;8243;49.048;8.396;2023-04-24T06:06:05;2.63;;;2.00;;
16270;SDS011;8243;49.048;8.396;2023-04-24T06:08:31;2.90;;;1.70;;
16270;SDS011;8243;49.048;8.396;2023-04-24T06:10:57;3.20;;;1.63;;
16270;SDS011;8243;49.048;8.396;2023-04-24T06:13:23;1.97;;;1.70;;
16270;SDS011;8243;49.048;8.396;2023-04-24T06:15:49;2.13;;;1.97;;
16270;SDS011;8243;49.048;8.396;2023-04-24T06:18:15;2.63;;;2.10;;
16270;SDS011;8243;49.048;8.396;2023-04-24T06:20:40;1.80;;;1.70;;
16270;SDS011;8243;49.048;8.396;2023-04-24T06:23:06;2.40;;;1.93;;
16270;SDS011;8243;49.048;8.396;2023-04-24T06:25:31;2.43;;;2.17;;
16270;SDS011;8243;49.048;8.396;2023-04-24T06:27:57;2.80;;;2.50;;
16270;SDS011;8243;49.048;8.396;2023-04-24T06:30:23;2.60;;;2.40;;
16270;SDS011;8243;49.048;8.396;2023-04-24T06:32:48;3.93;;;3.47;;
16270;SDS011;8243;49.048;8.396;2023-04-24T06:35:14;4.70;;;3.33;;
16270;SDS011;8243;49.048;8.396;2023-04-24T06:37:40;2.90;;;2.60;;
16270;SDS011;8243;49.048;8.396;2023-04-24T06:40:07;4.83;;;3.10;;
16270;SDS011;8243;49.048;8.396;2023-04-24T06:42:33;4.83;;;3.50;;
16270;SDS011;8243;49.048;8.396;2023-04-24T06:45:00;3.83;;;2.97;;
16270;SDS011;8243;49.048;8.396;2023-04-24T06:47:25;3.57;;;2.00;;
16270;SDS011;8243;49.048;8.396;2023-04-24T06:49:51;2.70;;;1.80;;
16270;SDS011;8243;49.048;8.396;2023-04-24T06:52:17;3.10;;;2.13;;
16270;SDS011;8243;49.048;8.396;2023-04-24T06:54:43;2.00;;;1.80;;
16270;SDS011;8243;49.048;8.396;2023-04-24T06:57:09;2.17;;;1.70;;
16270;SDS011;8243;49.048;8.396;2023-04-24T06:59:35;1.90;;;1.80;;
16270;SDS011;8243;49.048;8.396;2023-04-24T07:02:01;4.13;;;1.83;;
16270;SDS011;8243;49.048;8.396;2023-04-24T07:04:27;1.90;;;1.80;;
16270;SDS011;8243;49.048;8.396;2023-04-24T07:06:52;2.70;;;2.03;;
16270;SDS011;8243;49.048;8.396;2023-04-24T07:09:22;2.10;;;1.90;;
16270;SDS011;8243;49.048;8.396;2023-04-24T07:11:50;3.57;;;1.80;;
16270;SDS011;8243;49.048;8.396;2023-04-24T07:14:19;1.93;;;1.80;;
16270;SDS011;8243;49.048;8.396;2023-04-24T07:16:45;1.97;;;1.80;;
16270;SDS011;8243;49.048;8.396;2023-04-24T07:19:11;3.30;;;1.97;;
16270;SDS011;8243;49.048;8.396;2023-04-24T07:21:38;2.23;;;2.03;;
16270;SDS011;8243;49.048;8.396;2023-04-24T07:24:04;2.53;;;2.00;;
16270;SDS011;8243;49.048;8.396;2023-04-24T07:26:30;2.23;;;2.03;;
16270;SDS011;8243;49.048;8.396;2023-04-24T07:28:56;2.27;;;2.10;;
16270;SDS011;8243;49.048;8.396;2023-04-24T07:31:22;3.10;;;2.20;;
16270;SDS011;8243;49.048;8.396;2023-04-24T07:33:47;2.03;;;1.80;;
16270;SDS011;8243;49.048;8.396;2023-04-24T07:36:13;2.43;;;1.93;;
16270;SDS011;8243;49.048;8.396;2023-04-24T07:38:44;1.83;;;1.50;;
16270;SDS011;8243;49.048;8.396;2023-04-24T07:41:10;3.50;;;1.63;;
16270;SDS011;8243;49.048;8.396;2023-04-24T07:43:36;2.47;;;1.70;;
16270;SDS011;8243;49.048;8.396;2023-04-24T07:46:01;1.70;;;1.60;;
16270;SDS011;8243;49.048;8.396;2023-04-24T07:48:27;2.80;;;1.40;;
16270;SDS011;8243;49.048;8.396;2023-04-24T07:50:53;2.27;;;1.20;;
16270;SDS011;8243;49.048;8.396;2023-04-24T07:53:19;3.37;;;1.50;;
16270;SDS011;8243;49.048;8.396;2023-04-24T07:55:44;2.30;;;1.47;;
16270;SDS011;8243;49.048;8.396;2023-04-24T07:58:11;5.17;;;1.20;;
16270;SDS011;8243;49.048;8.396;2023-04-24T08:00:36;1.37;;;1.27;;
16270;SDS011;8243;49.048;8.396;2023-04-24T08:03:02;1.03;;;1.00;;
16270;SDS011;8243;49.048;8.396;2023-04-24T08:05:27;2.33;;;0.97;;
16270;SDS011;8243;49.048;8.396;2023-04-24T08:07:53;1.83;;;1.30;;
16270;SDS011;8243;49.048;8.396;2023-04-24T08:10:20;1.50;;;1.40;;
16270;SDS011;8243;49.048;8.396;2023-04-24T08:12:46;2.60;;;1.73;;
16270;SDS011;8243;49.048;8.396;2023-04-24T08:15:12;1.90;;;1.33;;
16270;SDS011;8243;49.048;8.396;2023-04-24T08:17:37;3.13;;;1.50;;
16270;SDS011;8243;49.048;8.396;2023-04-24T08:20:03;2.67;;;1.40;;
16270;SDS011;8243;49.048;8.396;2023-04-24T08:22:30;2.33;;;1.30;;
16270;SDS011;8243;49.048;8.396;2023-04-24T08:24:56;1.83;;;1.20;;
16270;SDS011;8243;49.048;8.396;2023-04-24T08:27:23;1.63;;;1.40;;
16270;SDS011;8243;49.048;8.396;2023-04-24T08:29:49;3.33;;;1.50;;
16270;SDS011;8243;49.048;8.396;2023-04-24T08:32:15;1.47;;;1.37;;
16270;SDS011;8243;49.048;8.396;2023-04-24T08:34:41;3.20;;;1.73;;
16270;SDS011;8243;49.048;8.396;2023-04-24T08:37:07;1.60;;;1.50;;
16270;SDS011;8243;49.048;8.396;2023-04-24T08:39:33;1.43;;;1.33;;
16270;SDS011;8243;49.048;8.396;2023-04-24T08:41:58;1.73;;;1.43;;
16270;SDS011;8243;49.048;8.396;2023-04-24T08:44:30;2.50;;;1.30;;
16270;SDS011;8243;49.048;8.396;2023-04-24T08:46:57;1.43;;;1.30;;
16270;SDS011;8243;49.048;8.396;2023-04-24T08:49:23;2.80;;;1.30;;
16270;SDS011;8243;49.048;8.396;2023-04-24T08:51:50;1.43;;;1.33;;
16270;SDS011;8243;49.048;8.396;2023-04-24T08:54:18;1.10;;;1.10;;
16270;SDS011;8243;49.048;8.396;2023-04-24T08:56:44;2.10;;;1.40;;
16270;SDS011;8243;49.048;8.396;2023-04-24T08:59:10;1.50;;;1.30;;
16270;SDS011;8243;49.048;8.396;2023-04-24T09:01:36;1.60;;;1.50;;
16270;SDS011;8243;49.048;8.396;2023-04-24T09:04:04;2.07;;;1.67;;
16270;SDS011;8243;49.048;8.396;2023-04-24T09:06:34;3.40;;;1.80;;
16270;SDS011;8243;49.048;8.396;2023-04-24T09:09:01;2.60;;;1.67;;
16270;SDS011;8243;49.048;8.396;2023-04-24T09:11:29;3.13;;;2.00;;
16270;SDS011;8243;49.048;8.396;2023-04-24T09:13:56;1.70;;;1.60;;
16270;SDS011;8243;49.048;8.396;2023-04-24T09:16:22;3.57;;;2.00;;
16270;SDS011;8243;49.048;8.396;2023-04-24T09:18:50;2.60;;;1.90;;
16270;SDS011;8243;49.048;8.396;2023-04-24T09:21:16;2.37;;;2.00;;
16270;SDS011;8243;49.048;8.396;2023-04-24T09:23:41;3.73;;;2.03;;
16270;SDS011;8243;49.048;8.396;2023-04-24T09:26:08;4.30;;;2.00;;
16270;SDS011;8243;49.048;8.396;2023-04-24T09:28:36;4.13;;;1.97;;
16270;SDS011;8243;49.048;8.396;2023-04-24T09:31:04;4.77;;;2.27;;
16270;SDS011;8243;49.048;8.396;2023-04-24T09:33:53;2.23;;;2.03;;
16270;SDS011;8243;49.048;8.396;2023-04-24T09:36:34;3.10;;;2.80;;
16270;SDS011;8243;49.048;8.396;2023-04-24T09:39:05;3.70;;;2.90;;
16270;SDS011;8243;49.048;8.396;2023-04-24T09:41:33;3.30;;;3.00;;
16270;SDS011;8243;49.048;8.396;2023-04-24T09:44:10;3.20;;;2.70;;
16270;SDS011;8243;49.048;8.396;2023-04-24T09:46:45;3.07;;;2.87;;
16270;SDS011;8243;49.048;8.396;2023-04-24T09:49:16;3.43;;;2.70;;
16270;SDS011;8243;49.048;8.396;2023-04-24T09:51:45;2.80;;;2.50;;
16270;SDS011;8243;49.048;8.396;2023-04-24T09:54:13;3.30;;;2.70;;
16270;SDS011;8243;49.048;8.396;2023-04-24T09:56:46;2.77;;;2.57;;
16270;SDS011;8243;49.048;8.396;2023-04-24T09:59:14;2.50;;;2.30;;
16270;SDS011;8243;49.048;8.396;2023-04-24T10:01:41;6.07;;;2.57;;
16270;SDS011;8243;49.048;8.396;2023-04-24T10:06:46;3.03;;;2.50;;
16270;SDS011;8243;49.048;8.396;2023-04-24T10:09:14;5.43;;;2.50;;
16270;SDS011;8243;49.048;8.396;2023-04-24T10:11:41;2.33;;;2.13;;
16270;SDS011;8243;49.048;8.396;2023-04-24T10:14:18;2.60;;;2.10;;
16270;SDS011;8243;49.048;8.396;2023-04-24T10:16:45;2.60;;;2.40;;
16270;SDS011;8243;49.048;8.396;2023-04-24T10:19:14;2.27;;;2.07;;
16270;SDS011;8243;49.048;8.396;2023-04-24T10:21:43;2.30;;;2.10;;
16270;SDS011;8243;49.048;8.396;2023-04-24T10:24:18;3.00;;;2.13;;
16270;SDS011;8243;49.048;8.396;2023-04-24T10:26:47;2.23;;;1.97;;
16270;SDS011;8243;49.048;8.396;2023-04-24T10:29:14;3.37;;;2.20;;
16270;SDS011;8243;49.048;8.396;2023-04-24T10:31:41;2.80;;;2.10;;
16270;SDS011;8243;49.048;8.396;2023-04-24T10:34:10;2.80;;;2.50;;
16270;SDS011;8243;49.048;8.396;2023-04-24T10:36:38;4.03;;;2.53;;
16270;SDS011;8243;49.048;8.396;2023-04-24T10:39:08;4.57;;;2.47;;
16270;SDS011;8243;49.048;8.396;2023-04-24T10:41:37;4.07;;;2.90;;
16270;SDS011;8243;49.048;8.396;2023-04-24T10:44:10;3.70;;;2.67;;
16270;SDS011;8243;49.048;8.396;2023-04-24T10:46:38;3.03;;;2.80;;
16270;SDS011;8243;49.048;8.396;2023-04-24T10:49:07;3.07;;;2.60;;
16270;SDS011;8243;49.048;8.396;2023-04-24T10:51:52;5.03;;;2.70;;
16270;SDS011;8243;49.048;8.396;2023-04-24T10:54:35;2.90;;;2.63;;
16270;SDS011;8243;49.048;8.396;2023-04-24T10:59:44;2.57;;;2.40;;
16270;SDS011;8243;49.048;8.396;2023-04-24T11:02:10;2.90;;;2.70;;
16270;SDS011;8243;49.048;8.396;2023-04-24T11:04:36;3.43;;;2.73;;
16270;SDS011;8243;49.048;8.396;2023-04-24T11:07:04;3.30;;;2.70;;
16270;SDS011;8243;49.048;8.396;2023-04-24T11:09:30;4.23;;;2.50;;
16270;SDS011;8243;49.048;8.396;2023-04-24T11:12:04;3.37;;;2.90;;
16270;SDS011;8243;49.048;8.396;2023-04-24T11:14:37;3.00;;;2.70;;
16270;SDS011;8243;49.048;8.396;2023-04-24T11:17:34;4.93;;;2.80;;
16270;SDS011;8243;49.048;8.396;2023-04-24T11:20:09;3.53;;;3.20;;
16270;SDS011;8243;49.048;8.396;2023-04-24T11:22:36;2.73;;;2.53;;
16270;SDS011;8243;49.048;8.396;2023-04-24T11:25:05;2.97;;;2.67;;
16270;SDS011;8243;49.048;8.396;2023-04-24T11:27:32;5.07;;;2.80;;
16270;SDS011;8243;49.048;8.396;2023-04-24T11:30:05;2.73;;;2.53;;
16270;SDS011;8243;49.048;8.396;2023-04-24T11:32:42;3.20;;;2.90;;
16270;SDS011;8243;49.048;8.396;2023-04-24T11:35:14;3.23;;;2.70;;
16270;SDS011;8243;49.048;8.396;2023-04-24T11:37:46;3.47;;;2.70;;
16270;SDS011;8243;49.048;8.396;2023-04-24T11:40:16;3.40;;;3.10;;
16270;SDS011;8243;49.048;8.396;2023-04-24T11:42:45;3.27;;;2.90;;
16270;SDS011;8243;49.048;8.396;2023-04-24T11:45:13;3.27;;;2.33;;
16270;SDS011;8243;49.048;8.396;2023-04-24T11:47:40;3.10;;;2.53;;
16270;SDS011;8243;49.048;8.396;2023-04-24T11:50:07;4.10;;;3.00;;
16270;SDS011;8243;49.048;8.396;2023-04-24T11:52:39;3.33;;;2.90;;
16270;SDS011;8243;49.048;8.396;2023-04-24T11:57:46;4.80;;;2.77;;
16270;SDS011;8243;49.048;8.396;2023-04-24T12:00:17;4.10;;;2.50;;
16270;SDS011;8243;49.048;8.396;2023-04-24T12:02:43;3.23;;;2.83;;
16270;SDS011;8243;49.048;8.396;2023-04-24T12:05:09;4.63;;;3.03;;
16270;SDS011;8243;49.048;8.396;2023-04-24T12:07:43;4.20;;;2.90;;
16270;SDS011;8243;49.048;8.396;2023-04-24T12:10:09;3.17;;;2.60;;
16270;SDS011;8243;49.048;8.396;2023-04-24T12:12:34;3.13;;;2.70;;
16270;SDS011;8243;49.048;8.396;2023-04-24T12:15:00;5.47;;;3.20;;
16270;SDS011;8243;49.048;8.396;2023-04-24T12:17:31;3.83;;;3.20;;
16270;SDS011;8243;49.048;8.396;2023-04-24T12:19:58;6.93;;;3.20;;
16270;SDS011;8243;49.048;8.396;2023-04-24T12:22:25;4.17;;;2.90;;
16270;SDS011;8243;49.048;8.396;2023-04-24T12:25:03;5.30;;;3.60;;
16270;SDS011;8243;49.048;8.396;2023-04-24T12:27:31;3.30;;;2.60;;
16270;SDS011;8243;49.048;8.396;2023-04-24T12:29:58;3.30;;;2.97;;
16270;SDS011;8243;49.048;8.396;2023-04-24T12:32:25;2.97;;;2.77;;
16270;SDS011;8243;49.048;8.396;2023-04-24T12:34:51;3.47;;;2.90;;
16270;SDS011;8243;49.048;8.396;2023-04-24T12:37:17;4.93;;;3.20;;
16270;SDS011;8243;49.048;8.396;2023-04-24T12:39:59;3.97;;;3.33;;
16270;SDS011;8243;49.048;8.396;2023-04-24T12:42:26;4.07;;;2.93;;
16270;SDS011;8243;49.048;8.396;2023-04-24T12:44:57;4.33;;;3.10;;
16270;SDS011;8243;49.048;8.396;2023-04-24T12:47:24;3.53;;;3.07;;
16270;SDS011;8243;49.048;8.396;2023-04-24T12:49:53;4.37;;;3.03;;
16270;SDS011;8243;49.048;8.396;2023-04-24T12:52:20;4.23;;;2.67;;
16270;SDS011;8243;49.048;8.396;2023-04-24T12:54:48;4.57;;;3.10;;
16270;SDS011;8243;49.048;8.396;2023-04-24T12:57:14;3.53;;;3.00;;
16270;SDS011;8243;49.048;8.396;2023-04-24T12:59:40;5.27;;;2.90;;
16270;SDS011;8243;49.048;8.396;2023-04-24T13:02:06;4.00;;;3.30;;
16270;SDS011;8243;49.048;8.396;2023-04-24T13:04:32;3.50;;;3.10;;
16270;SDS011;8243;49.048;8.396;2023-04-24T13:06:57;3.93;;;2.70;;
16270;SDS011;8243;49.048;8.396;2023-04-24T13:09:23;3.50;;;2.70;;
16270;SDS011;8243;49.048;8.396;2023-04-24T13:11:49;3.70;;;2.53;;
16270;SDS011;8243;49.048;8.396;2023-04-24T13:14:15;3.17;;;2.33;;
16270;SDS011;8243;49.048;8.396;2023-04-24T13:16:41;4.77;;;2.60;;
16270;SDS011;8243;49.048;8.396;2023-04-24T13:19:06;4.00;;;2.60;;
16270;SDS011;8243;49.048;8.396;2023-04-24T13:21:32;3.20;;;2.90;;
16270;SDS011;8243;49.048;8.396;2023-04-24T13:23:58;2.80;;;2.33;;
16270;SDS011;8243;49.048;8.396;2023-04-24T13:26:23;4.27;;;2.67;;
16270;SDS011;8243;49.048;8.396;2023-04-24T13:28:50;4.63;;;2.87;;
16270;SDS011;8243;49.048;8.396;2023-04-24T13:31:15;4.60;;;3.40;;
16270;SDS011;8243;49.048;8.396;2023-04-24T13:33:41;3.57;;;3.23;;
16270;SDS011;8243;49.048;8.396;2023-04-24T13:36:07;4.17;;;3.20;;
16270;SDS011;8243;49.048;8.396;2023-04-24T13:38:33;3.37;;;2.97;;
16270;SDS011;8243;49.048;8.396;2023-04-24T13:40:59;4.27;;;3.70;;
16270;SDS011;8243;49.048;8.396;2023-04-24T13:43:25;3.00;;;2.80;;
16270;SDS011;8243;49.048;8.396;2023-04-24T13:45:51;3.83;;;3.10;;
16270;SDS011;8243;49.048;8.396;2023-04-24T13:48:16;3.73;;;3.27;;
16270;SDS011;8243;49.048;8.396;2023-04-24T13:50:42;3.27;;;2.97;;
16270;SDS011;8243;49.048;8.396;2023-04-24T13:53:09;3.23;;;2.87;;
16270;SDS011;8243;49.048;8.396;2023-04-24T13:55:34;3.77;;;3.17;;
16270;SDS011;8243;49.048;8.396;2023-04-24T13:58:01;3.87;;;2.73;;
16270;SDS011;8243;49.048;8.396;2023-04-24T14:00:27;6.27;;;3.60;;
16270;SDS011;8243;49.048;8.396;2023-04-24T14:02:53;3.30;;;3.00;;
16270;SDS011;8243;49.048;8.396;2023-04-24T14:05:19;5.20;;;3.13;;
16270;SDS011;8243;49.048;8.396;2023-04-24T14:07:45;2.60;;;2.40;;
16270;SDS011;8243;49.048;8.396;2023-04-24T14:10:11;5.50;;;2.97;;
16270;SDS011;8243;49.048;8.396;2023-04-24T14:12:36;3.97;;;3.07;;
16270;SDS011;8243;49.048;8.396;2023-04-24T14:15:03;3.13;;;2.77;;
16270;SDS011;8243;49.048;8.396;2023-04-24T14:17:29;3.50;;;3.00;;
16270;SDS011;8243;49.048;8.396;2023-04-24T14:19:55;6.53;;;3.30;;
16270;SDS011;8243;49.048;8.396;2023-04-24T14:22:21;4.13;;;3.00;;
16270;SDS011;8243;49.048;8.396;2023-04-24T14:24:47;7.30;;;3.53;;
16270;SDS011;8243;49.048;8.396;2023-04-24T14:27:13;4.10;;;2.97;;
16270;SDS011;8243;49.048;8.396;2023-04-24T14:29:38;5.90;;;2.90;;
16270;SDS011;8243;49.048;8.396;2023-04-24T14:32:04;4.20;;;3.17;;
16270;SDS011;8243;49.048;8.396;2023-04-24T14:34:30;3.33;;;3.03;;
16270;SDS011;8243;49.048;8.396;2023-04-24T14:36:55;3.00;;;2.63;;
16270;SDS011;8243;49.048;8.396;2023-04-24T14:39:21;3.20;;;2.90;;
16270;SDS011;8243;49.048;8.396;2023-04-24T14:41:47;4.97;;;3.93;;
16270;SDS011;8243;49.048;8.396;2023-04-24T14:44:12;5.67;;;4.10;;
16270;SDS011;8243;49.048;8.396;2023-04-24T14:46:38;3.67;;;3.17;;
16270;SDS011;8243;49.048;8.396;2023-04-24T14:49:03;4.13;;;3.30;;
16270;SDS011;8243;49.048;8.396;2023-04-24T14:51:29;4.43;;;3.50;;
16270;SDS011;8243;49.048;8.396;2023-04-24T14:53:56;4.10;;;3.37;;
16270;SDS011;8243;49.048;8.396;2023-04-24T14:56:21;5.90;;;4.30;;
16270;SDS011;8243;49.048;8.396;2023-04-24T14:58:48;6.93;;;5.53;;
16270;SDS011;8243;49.048;8.396;2023-04-24T15:01:13;5.20;;;3.67;;
16270;SDS011;8243;49.048;8.396;2023-04-24T15:03:39;3.40;;;2.87;;
16270;SDS011;8243;49.048;8.396;2023-04-24T15:06:05;4.40;;;2.60;;